createdAt,value
2019-02-21T00:04:49.897Z,6.07
2019-02-21T00:07:30.667Z,5.77
2019-02-21T00:10:11.546Z,6.03
2019-02-21T00:12:52.084Z,4.80
2019-02-21T00:15:33.394Z,5.70
2019-02-21T00:18:14.044Z,6.83
2019-02-21T00:20:55.102Z,6.43
2019-02-21T00:23:35.570Z,6.50
2019-02-21T00:26:16.320Z,7.70
2019-02-21T00:28:56.945Z,6.90
2019-02-21T00:31:40.015Z,6.33
2019-02-21T00:34:20.498Z,6.43
2019-02-21T00:37:00.916Z,5.73
2019-02-21T00:39:41.582Z,7.37
2019-02-21T00:42:22.250Z,5.57
2019-02-21T00:45:02.815Z,6.53
2019-02-21T00:47:43.711Z,6.33
2019-02-21T00:50:24.610Z,7.00
2019-02-21T00:53:05.367Z,6.00
2019-02-21T00:55:46.068Z,6.27
2019-02-21T00:58:27.674Z,6.70
2019-02-21T01:01:08.974Z,5.77
2019-02-21T01:03:49.376Z,6.20
2019-02-21T01:06:29.889Z,5.37
2019-02-21T01:09:10.726Z,6.10
2019-02-21T01:11:51.549Z,6.00
2019-02-21T01:14:32.277Z,6.30
2019-02-21T01:17:13.361Z,6.07
2019-02-21T01:19:54.500Z,5.70
2019-02-21T01:22:35.281Z,6.63
2019-02-21T01:25:16.190Z,5.60
2019-02-21T01:27:57.544Z,5.90
2019-02-21T01:30:39.089Z,6.50
2019-02-21T01:33:19.822Z,5.53
2019-02-21T01:36:00.648Z,5.37
2019-02-21T01:38:41.119Z,4.70
2019-02-21T01:41:21.890Z,5.70
2019-02-21T01:44:04.639Z,4.87
2019-02-21T01:46:45.864Z,5.10
2019-02-21T01:49:26.430Z,5.40
2019-02-21T01:52:07.258Z,4.90
2019-02-21T01:54:47.999Z,5.00
2019-02-21T01:57:28.756Z,5.13
2019-02-21T02:00:09.471Z,4.93
2019-02-21T02:02:50.271Z,5.00
2019-02-21T02:05:31.006Z,6.30
2019-02-21T02:08:11.823Z,5.27
2019-02-21T02:10:52.693Z,5.67
2019-02-21T02:13:33.287Z,5.03
2019-02-21T02:16:14.053Z,4.63
2019-02-21T02:18:54.921Z,5.43
2019-02-21T02:21:36.048Z,5.53
2019-02-21T02:24:16.984Z,4.93
2019-02-21T02:26:57.687Z,5.57
2019-02-21T02:29:38.392Z,5.87
2019-02-21T02:32:19.351Z,5.93
2019-02-21T02:35:00.054Z,5.80
2019-02-21T02:37:40.603Z,6.27
2019-02-21T02:40:21.093Z,7.00
2019-02-21T02:43:01.841Z,6.70
2019-02-21T02:45:42.412Z,6.77
2019-02-21T02:48:23.280Z,6.47
2019-02-21T02:51:04.048Z,6.97
2019-02-21T02:53:44.802Z,6.90
2019-02-21T02:56:25.675Z,7.83
2019-02-21T02:59:06.416Z,7.73
2019-02-21T03:01:47.213Z,8.33
2019-02-21T03:04:28.220Z,7.90
2019-02-21T03:07:08.864Z,9.30
2019-02-21T03:09:49.501Z,7.90
2019-02-21T03:12:30.300Z,8.40
2019-02-21T03:15:10.892Z,8.47
2019-02-21T03:17:51.683Z,7.40
2019-02-21T03:20:32.373Z,9.63
2019-02-21T03:23:12.774Z,8.90
2019-02-21T03:25:53.965Z,8.13
2019-02-21T03:28:34.716Z,8.90
2019-02-21T03:31:15.374Z,9.33
2019-02-21T03:33:55.802Z,10.00
2019-02-21T03:36:36.550Z,10.30
2019-02-21T03:39:17.684Z,9.40
2019-02-21T03:41:58.487Z,10.33
2019-02-21T03:44:38.990Z,10.13
2019-02-21T03:47:19.687Z,11.20
2019-02-21T03:50:00.032Z,10.77
2019-02-21T03:52:40.581Z,10.57
2019-02-21T03:55:21.112Z,11.17
2019-02-21T03:58:01.903Z,11.87
2019-02-21T04:00:42.272Z,11.30
2019-02-21T04:03:23.117Z,10.67
2019-02-21T04:06:03.749Z,12.03
2019-02-21T04:08:44.296Z,10.17
2019-02-21T04:11:25.009Z,10.53
2019-02-21T04:14:05.409Z,10.77
2019-02-21T04:16:45.935Z,11.87
2019-02-21T04:19:26.927Z,12.23
2019-02-21T04:22:07.526Z,11.73
2019-02-21T04:24:48.083Z,12.57
2019-02-21T04:27:28.995Z,13.77
2019-02-21T04:30:09.707Z,11.90
2019-02-21T04:32:50.360Z,12.50
2019-02-21T04:35:31.263Z,13.50
2019-02-21T04:38:12.135Z,12.20
2019-02-21T04:40:52.710Z,13.97
2019-02-21T04:43:33.368Z,13.97
2019-02-21T04:46:14.189Z,14.80
2019-02-21T04:48:54.740Z,14.97
2019-02-21T04:51:35.633Z,14.20
2019-02-21T04:54:16.473Z,15.07
2019-02-21T04:56:57.215Z,13.83
2019-02-21T04:59:38.077Z,14.20
2019-02-21T05:05:42.299Z,14.50
2019-02-21T05:08:22.931Z,14.30
2019-02-21T05:11:03.459Z,14.30
2019-02-21T05:13:44.331Z,15.17
2019-02-21T05:16:25.146Z,15.23
2019-02-21T05:19:05.956Z,14.67
2019-02-21T05:21:46.430Z,14.47
2019-02-21T05:24:27.187Z,16.07
2019-02-21T05:27:12.424Z,16.33
2019-02-21T05:29:52.878Z,14.00
2019-02-21T05:32:52.805Z,16.00
2019-02-21T05:35:41.461Z,15.30
2019-02-21T05:38:31.913Z,16.30
2019-02-21T05:41:31.496Z,16.30
2019-02-21T05:44:38.619Z,16.80
2019-02-21T05:47:38.731Z,17.10
2019-02-21T05:50:38.238Z,18.23
2019-02-21T05:56:46.170Z,16.80
2019-02-21T05:59:34.935Z,18.57
2019-02-21T06:02:22.537Z,18.40
2019-02-21T06:05:22.051Z,16.97
2019-02-21T06:08:09.387Z,18.00
2019-02-21T06:11:08.978Z,17.83
2019-02-21T06:14:01.307Z,16.70
2019-02-21T06:16:47.869Z,16.97
2019-02-21T06:19:38.803Z,16.47
2019-02-21T06:22:27.947Z,16.80
2019-02-21T06:25:19.605Z,16.73
2019-02-21T06:28:22.116Z,16.07
2019-02-21T06:31:05.838Z,17.60
2019-02-21T06:33:49.344Z,17.30
2019-02-21T06:36:29.522Z,18.23
2019-02-21T06:39:11.041Z,15.60
2019-02-21T06:41:58.981Z,19.10
2019-02-21T06:44:34.141Z,18.40
2019-02-21T06:47:15.016Z,16.03
2019-02-21T06:49:55.629Z,18.17
2019-02-21T06:52:36.524Z,16.57
2019-02-21T06:55:20.449Z,18.40
2019-02-21T06:58:00.720Z,17.53
2019-02-21T07:00:41.429Z,19.77
2019-02-21T07:03:22.607Z,18.37
2019-02-21T07:06:03.538Z,17.50
2019-02-21T07:08:44.053Z,17.07
2019-02-21T07:11:25.351Z,19.00
2019-02-21T07:14:06.558Z,15.80
2019-02-21T07:16:47.194Z,18.07
2019-02-21T07:19:16.172Z,16.83
2019-02-21T07:22:06.190Z,16.87
2019-02-21T07:28:10.934Z,16.87
2019-02-21T07:30:43.026Z,18.27
2019-02-21T07:33:28.271Z,17.17
2019-02-21T07:36:07.120Z,15.57
2019-02-21T07:38:48.075Z,16.83
2019-02-21T07:41:27.307Z,17.50
2019-02-21T07:44:15.474Z,17.17
2019-02-21T07:46:56.011Z,15.83
2019-02-21T07:49:36.696Z,14.43
2019-02-21T07:52:17.667Z,15.63
2019-02-21T07:55:01.813Z,15.50
2019-02-21T07:57:39.647Z,16.07
2019-02-21T08:00:27.753Z,16.17
2019-02-21T08:03:09.206Z,15.20
2019-02-21T08:05:50.539Z,14.20
2019-02-21T08:08:32.477Z,15.90
2019-02-21T08:11:13.189Z,15.60
2019-02-21T08:13:53.892Z,16.00
2019-02-21T08:16:34.680Z,16.30
2019-02-21T08:19:15.471Z,16.00
2019-02-21T08:21:56.154Z,15.87
2019-02-21T08:24:36.728Z,16.50
2019-02-21T08:27:17.678Z,16.77
2019-02-21T08:29:58.346Z,14.30
2019-02-21T08:32:58.328Z,15.70
2019-02-21T08:35:38.891Z,16.20
2019-02-21T08:38:19.313Z,16.30
2019-02-21T08:40:59.598Z,15.80
2019-02-21T08:43:40.232Z,16.07
2019-02-21T08:46:21.104Z,16.33
2019-02-21T08:49:01.853Z,15.57
2019-02-21T08:51:42.625Z,16.40
2019-02-21T08:54:23.444Z,15.73
2019-02-21T08:57:04.180Z,16.27
2019-02-21T08:59:45.469Z,17.37
2019-02-21T09:02:26.371Z,16.30
2019-02-21T09:05:09.411Z,17.40
2019-02-21T09:07:49.966Z,16.63
2019-02-21T09:10:31.030Z,15.83
2019-02-21T09:13:11.708Z,17.20
2019-02-21T09:15:52.476Z,16.03
2019-02-21T09:18:33.544Z,17.70
2019-02-21T09:21:14.384Z,16.03
2019-02-21T09:23:56.750Z,15.47
2019-02-21T09:26:37.984Z,15.40
2019-02-21T09:29:18.692Z,17.00
2019-02-21T09:31:59.136Z,16.13
2019-02-21T09:34:39.794Z,16.50
2019-02-21T09:37:20.520Z,16.50
2019-02-21T09:40:01.538Z,14.83
2019-02-21T09:42:42.532Z,15.63
2019-02-21T09:45:23.313Z,17.50
2019-02-21T09:48:04.074Z,15.60
2019-02-21T09:50:44.836Z,14.87
2019-02-21T09:53:25.494Z,14.90
2019-02-21T09:56:06.095Z,14.50
2019-02-21T09:58:46.939Z,15.50
2019-02-21T10:01:27.922Z,15.73
2019-02-21T10:04:09.254Z,15.27
2019-02-21T10:06:49.829Z,14.40
2019-02-21T10:09:30.566Z,13.90
2019-02-21T10:12:11.510Z,15.57
2019-02-21T10:14:52.099Z,15.47
2019-02-21T10:17:32.773Z,16.13
2019-02-21T10:20:13.310Z,15.37
2019-02-21T10:26:27.086Z,15.53
2019-02-21T10:29:08.526Z,14.47
2019-02-21T10:31:48.912Z,14.60
2019-02-21T10:34:29.708Z,15.57
2019-02-21T10:37:10.944Z,14.57
2019-02-21T10:39:51.760Z,15.50
2019-02-21T10:42:33.071Z,14.47
2019-02-21T10:45:13.724Z,15.13
2019-02-21T10:47:54.880Z,15.33
2019-02-21T10:50:36.212Z,15.60
2019-02-21T10:53:16.932Z,13.80
2019-02-21T10:55:57.640Z,13.60
2019-02-21T10:58:38.434Z,14.20
2019-02-21T11:01:18.968Z,14.70
2019-02-21T11:03:59.732Z,14.90
2019-02-21T11:06:40.312Z,20.07
2019-02-21T11:09:21.060Z,13.20
2019-02-21T11:12:01.856Z,13.67
2019-02-21T11:14:47.464Z,13.80
2019-02-21T11:17:25.991Z,12.00
2019-02-21T11:20:06.954Z,13.23
2019-02-21T11:22:47.474Z,13.17
2019-02-21T11:25:28.228Z,12.30
2019-02-21T11:28:08.922Z,13.20
2019-02-21T11:30:49.678Z,11.37
2019-02-21T11:33:30.446Z,12.10
2019-02-21T11:36:11.166Z,11.90
2019-02-21T11:38:51.984Z,12.20
2019-02-21T11:41:32.762Z,11.30
2019-02-21T11:44:13.741Z,10.00
2019-02-21T11:46:54.498Z,11.60
2019-02-21T11:49:42.718Z,10.30
2019-02-21T11:52:30.862Z,9.60
2019-02-21T11:55:11.490Z,11.40
2019-02-21T11:57:52.412Z,10.87
2019-02-21T12:00:33.047Z,11.13
2019-02-21T12:03:13.938Z,10.57
2019-02-21T12:05:54.769Z,9.43
2019-02-21T12:08:35.390Z,10.90
2019-02-21T12:11:16.686Z,9.80
2019-02-21T12:14:00.668Z,9.40
2019-02-21T12:16:41.221Z,11.07
2019-02-21T12:19:21.830Z,9.00
2019-02-21T12:22:02.515Z,10.77
2019-02-21T12:24:43.363Z,10.30
2019-02-21T12:27:24.263Z,10.50
2019-02-21T12:30:05.341Z,9.60
2019-02-21T12:32:46.274Z,10.00
2019-02-21T12:35:29.940Z,10.30
2019-02-21T12:38:10.056Z,10.20
2019-02-21T12:40:50.746Z,11.00
2019-02-21T12:43:32.005Z,9.60
2019-02-21T12:46:13.625Z,9.60
2019-02-21T12:48:54.560Z,9.43
2019-02-21T12:51:35.122Z,11.43
2019-02-21T12:54:16.005Z,11.13
2019-02-21T12:56:57.305Z,8.40
2019-02-21T12:59:38.354Z,7.93
2019-02-21T13:02:19.038Z,9.03
2019-02-21T13:05:00.496Z,8.80
2019-02-21T13:07:41.579Z,8.27
2019-02-21T13:10:22.606Z,7.70
2019-02-21T13:13:03.604Z,7.30
2019-02-21T13:15:44.183Z,6.37
2019-02-21T13:18:24.784Z,6.90
2019-02-21T13:21:05.601Z,5.80
2019-02-21T13:23:46.461Z,7.23
2019-02-21T13:26:26.958Z,5.80
2019-02-21T13:29:07.902Z,5.70
2019-02-21T13:31:48.921Z,6.47
2019-02-21T13:34:29.974Z,5.57
2019-02-21T13:37:27.958Z,5.67
2019-02-21T13:39:47.684Z,6.50
2019-02-21T13:42:35.866Z,5.93
2019-02-21T13:45:23.982Z,5.90
2019-02-21T13:48:05.065Z,5.50
2019-02-21T13:50:46.777Z,5.73
2019-02-21T13:53:27.224Z,6.03
2019-02-21T13:56:07.985Z,6.50
2019-02-21T13:58:49.237Z,5.83
2019-02-21T14:01:28.374Z,5.90
2019-02-21T14:04:09.374Z,6.80
2019-02-21T14:06:50.125Z,6.37
2019-02-21T14:09:30.939Z,6.00
2019-02-21T14:12:14.359Z,7.63
2019-02-21T14:14:55.454Z,6.60
2019-02-21T14:17:36.371Z,5.97
2019-02-21T14:20:17.618Z,6.40
2019-02-21T14:22:58.428Z,5.80
2019-02-21T14:25:40.971Z,5.70
2019-02-21T14:28:22.310Z,6.47
2019-02-21T14:31:03.094Z,7.07
2019-02-21T14:33:43.762Z,6.17
2019-02-21T14:36:24.560Z,6.83
2019-02-21T14:39:05.637Z,6.50
2019-02-21T14:41:46.721Z,8.20
2019-02-21T14:44:27.423Z,7.40
2019-02-21T14:47:08.342Z,8.17
2019-02-21T14:49:48.826Z,6.73
2019-02-21T14:52:29.578Z,7.67
2019-02-21T14:55:10.375Z,7.67
2019-02-21T14:57:51.136Z,6.77
2019-02-21T15:00:31.963Z,7.50
2019-02-21T15:03:21.446Z,8.13
2019-02-21T15:05:55.800Z,7.67
2019-02-21T15:08:36.772Z,7.57
2019-02-21T15:11:17.583Z,6.23
2019-02-21T15:13:59.299Z,8.20
2019-02-21T15:16:40.488Z,8.17
2019-02-21T15:19:21.253Z,7.83
2019-02-21T15:22:02.219Z,6.60
2019-02-21T15:24:43.439Z,7.37
2019-02-21T15:27:24.366Z,8.70
2019-02-21T15:30:05.495Z,8.60
2019-02-21T15:32:46.450Z,7.83
2019-02-21T15:35:27.283Z,7.57
2019-02-21T15:38:19.032Z,7.80
2019-02-21T15:40:50.732Z,7.50
2019-02-21T15:43:31.461Z,7.63
2019-02-21T15:46:12.243Z,7.47
2019-02-21T15:48:53.152Z,7.03
2019-02-21T15:51:33.842Z,7.30
2019-02-21T15:54:14.639Z,7.53
2019-02-21T15:56:55.547Z,7.63
2019-02-21T15:59:36.637Z,7.47
2019-02-21T16:02:17.368Z,8.07
2019-02-21T16:04:58.644Z,6.37
2019-02-21T16:07:39.729Z,8.87
2019-02-21T16:10:20.402Z,8.27
2019-02-21T16:13:04.184Z,8.57
2019-02-21T16:15:44.228Z,6.33
2019-02-21T16:18:25.341Z,7.57
2019-02-21T16:21:06.221Z,8.20
2019-02-21T16:23:47.193Z,8.60
2019-02-21T16:26:31.542Z,8.70
2019-02-21T16:29:12.585Z,8.70
2019-02-21T16:31:53.693Z,7.87
2019-02-21T16:34:34.078Z,7.00
2019-02-21T16:37:15.057Z,7.80
2019-02-21T16:39:55.863Z,9.23
2019-02-21T16:42:36.862Z,7.63
2019-02-21T16:45:17.413Z,7.90
2019-02-21T16:47:58.046Z,7.77
2019-02-21T16:50:38.632Z,9.28
2019-02-21T16:53:19.523Z,7.87
2019-02-21T16:55:59.970Z,7.40
2019-02-21T16:58:42.811Z,8.07
2019-02-21T17:01:23.291Z,7.27
2019-02-21T17:04:04.169Z,7.70
2019-02-21T17:06:44.593Z,7.30
2019-02-21T17:09:25.265Z,8.27
2019-02-21T17:12:06.058Z,7.97
2019-02-21T17:14:47.613Z,7.30
2019-02-21T17:17:28.875Z,7.80
2019-02-21T17:20:09.761Z,6.80
2019-02-21T17:22:50.617Z,8.47
2019-02-21T17:25:31.357Z,7.73
2019-02-21T17:28:12.481Z,8.37
2019-02-21T17:30:53.254Z,7.10
2019-02-21T17:33:33.956Z,6.97
2019-02-21T17:36:14.721Z,8.03
2019-02-21T17:38:55.462Z,7.73
2019-02-21T17:41:35.847Z,7.90
2019-02-21T17:44:16.873Z,8.03
2019-02-21T17:46:57.477Z,7.70
2019-02-21T17:49:38.526Z,7.67
2019-02-21T17:52:19.349Z,7.80
2019-02-21T17:55:00.238Z,7.80
2019-02-21T17:57:40.782Z,8.10
2019-02-21T18:00:26.728Z,8.47
2019-02-21T18:03:09.719Z,8.57
2019-02-21T18:05:50.729Z,8.53
2019-02-21T18:08:31.681Z,8.80
2019-02-21T18:11:12.922Z,8.33
2019-02-21T18:13:53.793Z,8.83
2019-02-21T18:16:34.681Z,9.23
2019-02-21T18:19:15.483Z,9.63
2019-02-21T18:21:56.160Z,10.60
2019-02-21T18:24:37.109Z,10.40
2019-02-21T18:27:17.890Z,9.43
2019-02-21T18:29:58.697Z,10.50
2019-02-21T18:32:39.285Z,10.20
2019-02-21T18:35:20.586Z,10.17
2019-02-21T18:38:01.478Z,11.87
2019-02-21T18:40:42.062Z,12.27
2019-02-21T18:43:22.839Z,13.57
2019-02-21T18:46:03.529Z,12.23
2019-02-21T18:48:44.014Z,13.50
2019-02-21T18:51:25.917Z,11.57
2019-02-21T18:54:07.150Z,13.07
2019-02-21T18:56:48.456Z,14.17
2019-02-21T18:59:31.828Z,14.20
2019-02-21T19:02:19.816Z,16.30
2019-02-21T19:05:01.011Z,17.70
2019-02-21T19:07:42.316Z,17.03
2019-02-21T19:10:23.312Z,18.97
2019-02-21T19:13:07.916Z,18.83
2019-02-21T19:15:49.238Z,18.27
2019-02-21T19:18:30.727Z,18.57
2019-02-21T19:21:11.745Z,19.53
2019-02-21T19:23:54.345Z,20.73
2019-02-21T19:26:56.724Z,19.77
2019-02-21T19:29:25.522Z,19.67
2019-02-21T19:32:07.567Z,18.97
2019-02-21T19:34:48.287Z,20.80
2019-02-21T19:37:29.424Z,18.50
2019-02-21T19:40:10.380Z,19.57
2019-02-21T19:42:51.409Z,20.27
2019-02-21T19:45:32.660Z,19.37
2019-02-21T19:48:13.531Z,22.40
2019-02-21T19:50:58.017Z,20.77
2019-02-21T19:53:39.802Z,20.67
2019-02-21T19:56:20.955Z,24.90
2019-02-21T19:59:01.890Z,24.27
2019-02-21T20:01:42.869Z,26.83
2019-02-21T20:04:23.767Z,24.70
2019-02-21T20:07:05.717Z,25.30
2019-02-21T20:09:47.460Z,24.90
2019-02-21T20:12:31.771Z,23.57
2019-02-21T20:15:12.798Z,26.10
2019-02-21T20:17:53.342Z,22.50
2019-02-21T20:20:34.864Z,20.67
2019-02-21T20:23:18.845Z,22.87
2019-02-21T20:25:59.798Z,21.97
2019-02-21T20:28:41.235Z,21.33
2019-02-21T20:31:22.753Z,21.60
2019-02-21T20:34:03.394Z,20.53
2019-02-21T20:36:51.136Z,23.13
2019-02-21T20:39:27.317Z,20.67
2019-02-21T20:42:09.099Z,20.97
2019-02-21T20:44:50.341Z,18.60
2019-02-21T20:47:31.424Z,20.80
2019-02-21T20:50:12.709Z,19.30
2019-02-21T20:52:53.881Z,20.80
2019-02-21T20:55:43.055Z,20.23
2019-02-21T20:58:17.929Z,21.37
2019-02-21T21:00:59.355Z,20.60
2019-02-21T21:03:39.732Z,22.70
2019-02-21T21:06:20.413Z,19.83
2019-02-21T21:09:01.319Z,22.40
2019-02-21T21:11:43.818Z,21.80
2019-02-21T21:14:26.286Z,19.40
2019-02-21T21:17:07.025Z,20.60
2019-02-21T21:19:47.854Z,21.40
2019-02-21T21:22:31.699Z,18.77
2019-02-21T21:25:12.483Z,19.10
2019-02-21T21:27:53.150Z,18.90
2019-02-21T21:30:33.864Z,19.90
2019-02-21T21:33:14.538Z,21.60
2019-02-21T21:35:55.766Z,20.57
2019-02-21T21:38:34.911Z,17.90
2019-02-21T21:41:18.418Z,20.00
2019-02-21T21:43:58.958Z,17.87
2019-02-21T21:46:40.011Z,19.07
2019-02-21T21:49:23.304Z,20.20
2019-02-21T21:52:04.976Z,20.50
2019-02-21T21:54:46.279Z,21.63
2019-02-21T21:57:27.391Z,22.27
2019-02-21T22:00:09.134Z,21.30
2019-02-21T22:02:49.598Z,21.57
2019-02-21T22:05:30.831Z,21.47
2019-02-21T22:11:15.424Z,20.03
2019-02-21T22:13:55.966Z,19.27
2019-02-21T22:16:37.100Z,18.33
2019-02-21T22:19:18.281Z,20.20
2019-02-21T22:22:01.688Z,20.90
2019-02-21T22:24:42.155Z,18.50
2019-02-21T22:27:21.363Z,18.87
2019-02-21T22:30:02.735Z,19.80
2019-02-21T22:32:43.860Z,18.57
2019-02-21T22:35:24.449Z,17.43
2019-02-21T22:38:05.426Z,18.80
2019-02-21T22:40:46.268Z,19.27
2019-02-21T22:43:27.110Z,19.20
2019-02-21T22:46:07.818Z,17.90
2019-02-21T22:48:48.495Z,17.00
2019-02-21T22:51:29.662Z,16.07
2019-02-21T22:54:10.260Z,14.70
2019-02-21T22:56:51.009Z,15.47
2019-02-21T22:59:31.836Z,15.70
2019-02-21T23:02:12.680Z,15.00
2019-02-21T23:04:53.342Z,15.20
2019-02-21T23:07:34.180Z,12.70
2019-02-21T23:10:15.124Z,14.50
2019-02-21T23:12:56.447Z,14.20
2019-02-21T23:15:37.166Z,13.13
2019-02-21T23:18:18.258Z,13.03
2019-02-21T23:20:58.982Z,13.37
2019-02-21T23:23:39.785Z,14.83
2019-02-21T23:26:20.591Z,12.80
2019-02-21T23:29:01.330Z,13.00
2019-02-21T23:31:42.256Z,13.50
2019-02-21T23:37:36.654Z,13.53
2019-02-21T23:40:17.146Z,13.20
2019-02-21T23:42:57.587Z,15.03
2019-02-21T23:45:38.290Z,11.60
2019-02-21T23:48:18.815Z,11.40
2019-02-21T23:50:59.973Z,11.13
2019-02-21T23:53:40.717Z,10.60
2019-02-21T23:56:21.722Z,11.30
2019-02-21T23:59:02.629Z,10.13
